createdAt,value
2023-05-09T00:00:22.128Z,101082.03
2023-05-09T00:06:46.656Z,101084.25
2023-05-09T00:12:34.969Z,101065.78
2023-05-09T00:24:58.237Z,101043.16
2023-05-09T00:30:45.032Z,101038.41
2023-05-09T00:36:32.315Z,101034.19
2023-05-09T00:42:20.770Z,101030.41
2023-05-09T00:48:10.838Z,101022.03
2023-05-09T00:53:57.657Z,100999.91
2023-05-09T00:59:56.944Z,101007.34
2023-05-09T01:05:50.026Z,101000.31
2023-05-09T01:12:22.838Z,100994.47
2023-05-09T01:18:43.402Z,100993.50
2023-05-09T01:25:10.171Z,100988.28
2023-05-09T01:31:10.294Z,100985.31
2023-05-09T01:37:04.767Z,100979.97
2023-05-09T01:43:18.535Z,100979.59
2023-05-09T01:49:10.556Z,100986.19
2023-05-09T01:55:03.189Z,100959.75
2023-05-09T02:00:54.140Z,100957.38
2023-05-09T02:06:42.744Z,100961.31
2023-05-09T02:12:32.872Z,100969.50
2023-05-09T02:18:29.629Z,100967.63
2023-05-09T02:24:44.198Z,100964.16
2023-05-09T02:30:48.576Z,100963.19
2023-05-09T02:36:36.055Z,100952.91
2023-05-09T02:42:25.599Z,100956.69
2023-05-09T02:48:15.195Z,100946.03
2023-05-09T02:54:01.909Z,100952.25
2023-05-09T02:59:48.900Z,100953.84
2023-05-09T03:05:39.755Z,100956.50
2023-05-09T03:11:27.869Z,100964.28
2023-05-09T03:17:21.559Z,100971.28
2023-05-09T03:23:10.580Z,100980.19
2023-05-09T03:29:05.881Z,100965.75
2023-05-09T03:34:52.710Z,100964.09
2023-05-09T03:40:39.765Z,100954.03
2023-05-09T03:46:35.301Z,100949.44
2023-05-09T03:52:23.024Z,100937.25
2023-05-09T03:58:15.404Z,100940.09
2023-05-09T04:04:06.717Z,100936.53
2023-05-09T04:10:04.441Z,100922.13
2023-05-09T04:15:51.873Z,100923.19
2023-05-09T04:21:40.162Z,100920.75
2023-05-09T04:27:39.458Z,100923.00
2023-05-09T04:33:30.306Z,100924.81
2023-05-09T04:39:23.643Z,100915.66
2023-05-09T04:45:20.151Z,100908.72
2023-05-09T04:51:08.213Z,100909.31
2023-05-09T04:57:03.246Z,100909.09
2023-05-09T05:02:57.563Z,100894.69
2023-05-09T05:08:49.266Z,100896.69
2023-05-09T05:14:37.986Z,100888.41
2023-05-09T05:20:29.006Z,100881.59
2023-05-09T05:26:18.534Z,100880.91
2023-05-09T05:32:08.094Z,100878.81
2023-05-09T05:37:56.350Z,100874.47
2023-05-09T05:43:45.818Z,100875.66
2023-05-09T05:49:39.771Z,100874.56
2023-05-09T05:55:27.641Z,100874.34
2023-05-09T06:01:17.444Z,100865.44
2023-05-09T06:07:06.582Z,100870.97
2023-05-09T06:13:00.282Z,100873.03
2023-05-09T06:18:48.268Z,100871.72
2023-05-09T06:24:37.122Z,100873.84
2023-05-09T06:30:26.687Z,100879.00
2023-05-09T06:36:21.940Z,100865.66
2023-05-09T06:42:09.741Z,100866.88
2023-05-09T06:48:43.940Z,100865.28
2023-05-09T06:54:42.360Z,100864.53
2023-05-09T07:00:29.413Z,100857.47
2023-05-09T07:07:01.037Z,100845.19
2023-05-09T07:12:58.142Z,100837.56
2023-05-09T07:25:44.023Z,100849.75
2023-05-09T07:31:37.328Z,100832.53
2023-05-09T07:37:26.142Z,100835.44
2023-05-09T07:43:17.790Z,100827.34
2023-05-09T07:49:26.676Z,100841.03
2023-05-09T07:55:20.630Z,100837.59
2023-05-09T08:01:07.512Z,100840.72
2023-05-09T08:07:13.269Z,100835.88
2023-05-09T08:13:12.011Z,100844.19
2023-05-09T08:19:07.950Z,100830.03
2023-05-09T08:24:56.908Z,100832.69
2023-05-09T08:30:46.593Z,100824.28
2023-05-09T08:36:34.067Z,100825.25
2023-05-09T08:42:25.498Z,100818.44
2023-05-09T08:48:16.904Z,100815.66
2023-05-09T08:54:05.610Z,100821.38
2023-05-09T08:59:56.034Z,100823.78
2023-05-09T09:05:44.669Z,100825.44
2023-05-09T09:11:37.244Z,100815.34
2023-05-09T09:17:28.253Z,100805.31
2023-05-09T09:23:24.100Z,100790.16
2023-05-09T09:29:15.784Z,100796.66
2023-05-09T09:35:10.635Z,100788.50
2023-05-09T09:40:58.918Z,100778.59
2023-05-09T09:46:54.255Z,100772.47
2023-05-09T09:53:14.474Z,100770.22
2023-05-09T09:59:14.011Z,100770.06
2023-05-09T10:05:08.125Z,100771.91
2023-05-09T10:10:55.236Z,100766.53
2023-05-09T10:16:45.309Z,100740.16
2023-05-09T10:22:33.658Z,100754.63
2023-05-09T10:28:26.358Z,100745.84
2023-05-09T10:34:13.642Z,100742.28
2023-05-09T10:40:05.211Z,100727.59
2023-05-09T10:45:55.834Z,100733.88
2023-05-09T10:51:45.383Z,100728.03
2023-05-09T10:57:32.821Z,100717.91
2023-05-09T11:03:22.924Z,100711.59
2023-05-09T11:09:38.288Z,100695.16
2023-05-09T11:15:27.533Z,100706.16
2023-05-09T11:21:14.765Z,100703.03
2023-05-09T11:27:01.701Z,100711.72
2023-05-09T11:32:59.191Z,100722.78
2023-05-09T11:38:51.614Z,100713.25
2023-05-09T11:44:43.240Z,100716.38
2023-05-09T11:50:31.644Z,100708.44
2023-05-09T11:56:21.889Z,100706.69
2023-05-09T12:02:09.297Z,100704.91
2023-05-09T12:08:07.400Z,100698.94
2023-05-09T12:13:54.658Z,100700.53
2023-05-09T12:19:41.412Z,100681.72
2023-05-09T12:25:34.640Z,100679.81
2023-05-09T12:31:24.932Z,100672.75
2023-05-09T12:37:19.731Z,100670.31
2023-05-09T12:43:07.949Z,100658.91
2023-05-09T12:48:57.947Z,100644.94
2023-05-09T12:54:47.902Z,100639.16
2023-05-09T13:00:48.539Z,100632.13
2023-05-09T13:06:48.162Z,100625.16
2023-05-09T13:12:36.155Z,100632.09
2023-05-09T13:18:24.542Z,100628.31
2023-05-09T13:24:13.613Z,100623.59
2023-05-09T13:30:01.135Z,100622.72
2023-05-09T13:35:55.677Z,100614.72
2023-05-09T13:41:53.478Z,100618.19
2023-05-09T13:47:42.891Z,100619.31
2023-05-09T13:53:33.141Z,100603.88
2023-05-09T13:59:21.750Z,100600.06
2023-05-09T14:05:35.931Z,100598.97
2023-05-09T14:11:39.127Z,100589.81
2023-05-09T14:17:33.432Z,100592.97
2023-05-09T14:23:20.532Z,100588.00
2023-05-09T14:29:12.927Z,100594.25
2023-05-09T14:35:02.288Z,100581.50
2023-05-09T14:41:01.288Z,100600.25
2023-05-09T14:47:04.979Z,100578.69
2023-05-09T14:53:11.060Z,100565.28
2023-05-09T14:58:58.515Z,100550.47
2023-05-09T15:04:51.688Z,100546.72
2023-05-09T15:10:38.866Z,100542.97
2023-05-09T15:16:26.844Z,100542.28
2023-05-09T15:22:15.269Z,100577.88
2023-05-09T15:28:04.427Z,100591.22
2023-05-09T15:33:51.735Z,100595.72
2023-05-09T15:39:43.768Z,100600.72
2023-05-09T15:45:45.308Z,100596.66
2023-05-09T15:51:37.869Z,100589.38
2023-05-09T15:57:28.826Z,100593.56
2023-05-09T16:03:20.930Z,100591.78
2023-05-09T16:09:08.845Z,100571.13
2023-05-09T16:14:55.956Z,100561.31
2023-05-09T16:20:45.449Z,100566.50
2023-05-09T16:26:32.936Z,100567.97
2023-05-09T16:32:32.068Z,100549.97
2023-05-09T16:45:57.443Z,100520.19
2023-05-09T17:05:53.172Z,100493.38
2023-05-09T17:12:37.564Z,100506.84
2023-05-09T17:34:36.624Z,100527.31
2023-05-09T17:40:42.574Z,100547.03
2023-05-09T17:47:14.210Z,100591.59
2023-05-09T17:53:39.558Z,100610.50
2023-05-09T17:59:28.811Z,100621.69
2023-05-09T18:05:26.685Z,100634.97
2023-05-09T18:11:14.752Z,100641.63
2023-05-09T18:17:02.648Z,100640.41
2023-05-09T18:22:52.351Z,100651.81
2023-05-09T18:28:39.894Z,100649.63
2023-05-09T18:34:28.335Z,100662.41
2023-05-09T18:40:16.216Z,100666.38
2023-05-09T18:46:03.833Z,100642.69
2023-05-09T18:51:51.013Z,100669.97
2023-05-09T18:57:51.557Z,100682.56
2023-05-09T19:03:46.222Z,100691.78
2023-05-09T19:09:34.142Z,100676.69
2023-05-09T19:24:05.315Z,100692.19
2023-05-09T19:29:13.745Z,100692.28
2023-05-09T19:35:01.260Z,100708.47
2023-05-09T19:40:48.425Z,100699.28
2023-05-09T19:46:39.995Z,100696.03
2023-05-09T19:52:27.910Z,100701.69
2023-05-09T19:58:17.441Z,100698.03
2023-05-09T20:04:04.995Z,100698.09
2023-05-09T20:09:53.326Z,100687.75
2023-05-09T20:15:42.510Z,100676.91
2023-05-09T20:21:44.655Z,100677.66
2023-05-09T20:27:40.056Z,100687.97
2023-05-09T20:41:05.408Z,100686.66
2023-05-09T20:47:16.025Z,100696.03
2023-05-09T20:59:43.636Z,100683.25
2023-05-09T21:05:52.702Z,100678.84
2023-05-09T21:12:23.447Z,100677.88
2023-05-09T21:18:44.667Z,100688.47
2023-05-09T21:24:31.550Z,100696.66
2023-05-09T21:30:18.536Z,100697.06
2023-05-09T21:36:11.194Z,100691.91
2023-05-09T21:42:02.351Z,100695.75
2023-05-09T21:47:51.402Z,100698.97
2023-05-09T21:53:41.200Z,100711.13
2023-05-09T21:59:28.205Z,100717.88
2023-05-09T22:05:44.045Z,100722.34
2023-05-09T22:11:30.915Z,100733.84
2023-05-09T22:17:17.981Z,100740.53
2023-05-09T22:23:33.395Z,100740.56
2023-05-09T22:29:27.985Z,100746.47
2023-05-09T22:36:54.442Z,100749.81
2023-05-09T22:42:41.347Z,100749.13
2023-05-09T22:48:30.254Z,100747.16
2023-05-09T22:54:21.618Z,100753.38
2023-05-09T23:00:21.150Z,100753.97
2023-05-09T23:06:08.356Z,100743.03
2023-05-09T23:11:59.627Z,100741.63
2023-05-09T23:17:47.912Z,100744.09
2023-05-09T23:23:37.152Z,100734.53
2023-05-09T23:29:25.524Z,100744.97
2023-05-09T23:35:13.809Z,100742.97
2023-05-09T23:41:01.333Z,100735.19
2023-05-09T23:46:48.217Z,100730.25
2023-05-09T23:52:37.154Z,100729.00
2023-05-09T23:58:23.877Z,100735.59
